sensor_id;sensor_type;location;lat;lon;timestamp;P1;durP1;ratioP1;P2;durP2;ratioP2
61373;SDS011;47242;48.158;-1.586;2023-06-05T04:32:50;7.15;;;3.47;;
61373;SDS011;47242;48.158;-1.586;2023-06-05T04:35:22;9.93;;;3.63;;
61373;SDS011;47242;48.158;-1.586;2023-06-05T04:37:48;6.18;;;2.83;;
61373;SDS011;47242;48.158;-1.586;2023-06-05T04:40:15;8.23;;;3.22;;
61373;SDS011;47242;48.158;-1.586;2023-06-05T04:42:42;9.82;;;3.17;;
61373;SDS011;47242;48.158;-1.586;2023-06-05T04:45:08;6.10;;;2.92;;
61373;SDS011;47242;48.158;-1.586;2023-06-05T04:47:34;8.63;;;3.28;;
61373;SDS011;47242;48.158;-1.586;2023-06-05T04:50:00;8.82;;;3.10;;
61373;SDS011;47242;48.158;-1.586;2023-06-05T04:52:31;6.35;;;3.17;;
61373;SDS011;47242;48.158;-1.586;2023-06-05T04:54:58;7.00;;;2.80;;
61373;SDS011;47242;48.158;-1.586;2023-06-05T04:57:26;8.75;;;3.95;;
61373;SDS011;47242;48.158;-1.586;2023-06-05T04:59:53;8.23;;;3.58;;
61373;SDS011;47242;48.158;-1.586;2023-06-05T05:02:19;6.20;;;2.75;;
61373;SDS011;47242;48.158;-1.586;2023-06-05T05:04:45;7.00;;;3.17;;
61373;SDS011;47242;48.158;-1.586;2023-06-05T05:07:11;8.65;;;3.67;;
61373;SDS011;47242;48.158;-1.586;2023-06-05T05:09:40;8.35;;;2.90;;
61373;SDS011;47242;48.158;-1.586;2023-06-05T05:12:07;9.48;;;3.03;;
61373;SDS011;47242;48.158;-1.586;2023-06-05T05:14:33;6.20;;;3.50;;
61373;SDS011;47242;48.158;-1.586;2023-06-05T05:16:58;6.40;;;2.95;;
61373;SDS011;47242;48.158;-1.586;2023-06-05T05:19:26;7.68;;;3.00;;
61373;SDS011;47242;48.158;-1.586;2023-06-05T05:21:52;7.47;;;2.70;;
61373;SDS011;47242;48.158;-1.586;2023-06-05T05:24:17;7.07;;;3.00;;
61373;SDS011;47242;48.158;-1.586;2023-06-05T05:26:43;7.60;;;3.03;;
61373;SDS011;47242;48.158;-1.586;2023-06-05T05:29:09;7.93;;;3.25;;
61373;SDS011;47242;48.158;-1.586;2023-06-05T05:31:34;7.00;;;2.65;;
61373;SDS011;47242;48.158;-1.586;2023-06-05T05:34:00;9.80;;;3.00;;
61373;SDS011;47242;48.158;-1.586;2023-06-05T05:36:26;4.47;;;2.83;;
61373;SDS011;47242;48.158;-1.586;2023-06-05T05:38:55;12.25;;;3.15;;
61373;SDS011;47242;48.158;-1.586;2023-06-05T05:41:21;8.43;;;3.08;;
61373;SDS011;47242;48.158;-1.586;2023-06-05T05:43:47;7.68;;;3.03;;
61373;SDS011;47242;48.158;-1.586;2023-06-05T05:46:12;7.20;;;2.92;;
61373;SDS011;47242;48.158;-1.586;2023-06-05T05:48:39;7.07;;;3.00;;
61373;SDS011;47242;48.158;-1.586;2023-06-05T05:51:05;7.05;;;2.90;;
61373;SDS011;47242;48.158;-1.586;2023-06-05T05:53:31;5.65;;;2.70;;
61373;SDS011;47242;48.158;-1.586;2023-06-05T05:55:57;7.18;;;2.80;;
61373;SDS011;47242;48.158;-1.586;2023-06-05T05:58:24;7.70;;;2.72;;
61373;SDS011;47242;48.158;-1.586;2023-06-05T06:00:49;7.28;;;3.17;;
61373;SDS011;47242;48.158;-1.586;2023-06-05T06:03:18;9.30;;;2.70;;
61373;SDS011;47242;48.158;-1.586;2023-06-05T06:05:44;7.85;;;2.78;;
61373;SDS011;47242;48.158;-1.586;2023-06-05T06:08:10;8.20;;;2.83;;
61373;SDS011;47242;48.158;-1.586;2023-06-05T06:10:36;9.07;;;2.65;;
61373;SDS011;47242;48.158;-1.586;2023-06-05T06:13:02;7.38;;;3.00;;
61373;SDS011;47242;48.158;-1.586;2023-06-05T06:15:29;9.90;;;3.10;;
61373;SDS011;47242;48.158;-1.586;2023-06-05T06:17:55;6.97;;;2.90;;
61373;SDS011;47242;48.158;-1.586;2023-06-05T06:20:21;7.20;;;2.60;;
61373;SDS011;47242;48.158;-1.586;2023-06-05T06:22:47;6.90;;;2.78;;
61373;SDS011;47242;48.158;-1.586;2023-06-05T06:25:13;6.43;;;2.75;;
61373;SDS011;47242;48.158;-1.586;2023-06-05T06:27:40;7.72;;;2.80;;
61373;SDS011;47242;48.158;-1.586;2023-06-05T06:30:13;7.13;;;2.95;;
61373;SDS011;47242;48.158;-1.586;2023-06-05T06:32:40;4.70;;;2.70;;
61373;SDS011;47242;48.158;-1.586;2023-06-05T06:35:06;10.48;;;2.88;;
61373;SDS011;47242;48.158;-1.586;2023-06-05T06:37:32;5.82;;;2.50;;
61373;SDS011;47242;48.158;-1.586;2023-06-05T06:39:58;8.90;;;3.28;;
61373;SDS011;47242;48.158;-1.586;2023-06-05T06:42:24;7.20;;;2.38;;
61373;SDS011;47242;48.158;-1.586;2023-06-05T06:44:51;8.00;;;2.85;;
61373;SDS011;47242;48.158;-1.586;2023-06-05T06:47:21;6.47;;;2.47;;
61373;SDS011;47242;48.158;-1.586;2023-06-05T06:49:47;7.20;;;2.75;;
61373;SDS011;47242;48.158;-1.586;2023-06-05T06:52:12;7.53;;;2.88;;
61373;SDS011;47242;48.158;-1.586;2023-06-05T06:54:38;5.97;;;2.60;;
61373;SDS011;47242;48.158;-1.586;2023-06-05T06:57:04;6.38;;;2.67;;
61373;SDS011;47242;48.158;-1.586;2023-06-05T06:59:30;8.25;;;2.90;;
61373;SDS011;47242;48.158;-1.586;2023-06-05T07:02:14;5.10;;;2.47;;
61373;SDS011;47242;48.158;-1.586;2023-06-05T07:04:41;5.57;;;2.60;;
61373;SDS011;47242;48.158;-1.586;2023-06-05T07:07:09;8.05;;;2.50;;
61373;SDS011;47242;48.158;-1.586;2023-06-05T07:09:42;8.10;;;3.00;;
61373;SDS011;47242;48.158;-1.586;2023-06-05T07:12:08;9.77;;;3.15;;
61373;SDS011;47242;48.158;-1.586;2023-06-05T07:14:35;7.68;;;3.15;;
61373;SDS011;47242;48.158;-1.586;2023-06-05T07:17:01;5.63;;;2.75;;
61373;SDS011;47242;48.158;-1.586;2023-06-05T07:19:28;6.35;;;2.63;;
61373;SDS011;47242;48.158;-1.586;2023-06-05T07:21:57;9.85;;;3.10;;
61373;SDS011;47242;48.158;-1.586;2023-06-05T07:24:27;6.45;;;2.42;;
61373;SDS011;47242;48.158;-1.586;2023-06-05T07:26:54;7.20;;;2.40;;
61373;SDS011;47242;48.158;-1.586;2023-06-05T07:29:22;7.40;;;2.47;;
61373;SDS011;47242;48.158;-1.586;2023-06-05T07:31:49;7.93;;;2.33;;
61373;SDS011;47242;48.158;-1.586;2023-06-05T07:34:17;6.18;;;2.45;;
61373;SDS011;47242;48.158;-1.586;2023-06-05T07:36:43;5.82;;;2.63;;
61373;SDS011;47242;48.158;-1.586;2023-06-05T07:39:11;6.13;;;2.60;;
61373;SDS011;47242;48.158;-1.586;2023-06-05T07:41:38;5.80;;;2.60;;
61373;SDS011;47242;48.158;-1.586;2023-06-05T07:44:05;4.80;;;2.33;;
61373;SDS011;47242;48.158;-1.586;2023-06-05T07:46:44;6.50;;;2.70;;
61373;SDS011;47242;48.158;-1.586;2023-06-05T07:49:10;7.60;;;3.08;;
61373;SDS011;47242;48.158;-1.586;2023-06-05T07:51:36;5.95;;;2.92;;
61373;SDS011;47242;48.158;-1.586;2023-06-05T07:54:02;6.05;;;2.60;;
61373;SDS011;47242;48.158;-1.586;2023-06-05T07:56:32;7.72;;;2.97;;
61373;SDS011;47242;48.158;-1.586;2023-06-05T07:59:02;8.10;;;2.95;;
61373;SDS011;47242;48.158;-1.586;2023-06-05T08:01:29;6.35;;;2.95;;
61373;SDS011;47242;48.158;-1.586;2023-06-05T08:03:55;6.28;;;3.17;;
61373;SDS011;47242;48.158;-1.586;2023-06-05T08:06:21;8.38;;;3.15;;
61373;SDS011;47242;48.158;-1.586;2023-06-05T08:08:49;5.03;;;3.00;;
61373;SDS011;47242;48.158;-1.586;2023-06-05T08:11:15;7.00;;;3.33;;
61373;SDS011;47242;48.158;-1.586;2023-06-05T08:13:41;5.75;;;3.10;;
61373;SDS011;47242;48.158;-1.586;2023-06-05T08:16:07;6.22;;;3.30;;
61373;SDS011;47242;48.158;-1.586;2023-06-05T08:18:33;7.45;;;2.95;;
61373;SDS011;47242;48.158;-1.586;2023-06-05T08:20:58;6.13;;;3.30;;
61373;SDS011;47242;48.158;-1.586;2023-06-05T08:23:24;5.53;;;3.10;;
61373;SDS011;47242;48.158;-1.586;2023-06-05T08:25:51;6.75;;;3.25;;
61373;SDS011;47242;48.158;-1.586;2023-06-05T08:28:16;5.50;;;3.13;;
61373;SDS011;47242;48.158;-1.586;2023-06-05T08:30:42;6.38;;;3.15;;
61373;SDS011;47242;48.158;-1.586;2023-06-05T08:33:09;5.95;;;3.20;;
61373;SDS011;47242;48.158;-1.586;2023-06-05T08:35:35;7.90;;;3.47;;
61373;SDS011;47242;48.158;-1.586;2023-06-05T08:38:02;5.72;;;2.97;;
61373;SDS011;47242;48.158;-1.586;2023-06-05T08:40:28;6.85;;;3.10;;
61373;SDS011;47242;48.158;-1.586;2023-06-05T08:42:54;5.82;;;3.15;;
61373;SDS011;47242;48.158;-1.586;2023-06-05T08:45:21;5.18;;;3.20;;
61373;SDS011;47242;48.158;-1.586;2023-06-05T08:47:50;6.40;;;3.08;;
61373;SDS011;47242;48.158;-1.586;2023-06-05T08:50:16;8.43;;;3.40;;
61373;SDS011;47242;48.158;-1.586;2023-06-05T08:52:42;4.97;;;3.00;;
61373;SDS011;47242;48.158;-1.586;2023-06-05T08:55:10;7.22;;;3.05;;
61373;SDS011;47242;48.158;-1.586;2023-06-05T08:57:40;4.50;;;3.10;;
61373;SDS011;47242;48.158;-1.586;2023-06-05T09:00:07;5.47;;;2.83;;
61373;SDS011;47242;48.158;-1.586;2023-06-05T09:02:39;6.70;;;3.17;;
61373;SDS011;47242;48.158;-1.586;2023-06-05T09:05:12;6.53;;;3.20;;
61373;SDS011;47242;48.158;-1.586;2023-06-05T09:07:41;5.57;;;3.05;;
61373;SDS011;47242;48.158;-1.586;2023-06-05T09:10:20;5.13;;;3.40;;
61373;SDS011;47242;48.158;-1.586;2023-06-05T09:12:57;5.75;;;3.05;;
61373;SDS011;47242;48.158;-1.586;2023-06-05T09:15:25;7.15;;;3.53;;
61373;SDS011;47242;48.158;-1.586;2023-06-05T09:20:36;7.10;;;3.20;;
61373;SDS011;47242;48.158;-1.586;2023-06-05T09:23:20;6.43;;;3.42;;
61373;SDS011;47242;48.158;-1.586;2023-06-05T09:25:49;6.32;;;3.38;;
61373;SDS011;47242;48.158;-1.586;2023-06-05T09:28:16;5.95;;;3.47;;
61373;SDS011;47242;48.158;-1.586;2023-06-05T09:30:58;6.97;;;3.42;;
61373;SDS011;47242;48.158;-1.586;2023-06-05T09:33:28;5.95;;;3.42;;
61373;SDS011;47242;48.158;-1.586;2023-06-05T09:36:01;6.82;;;3.28;;
61373;SDS011;47242;48.158;-1.586;2023-06-05T09:38:28;6.72;;;3.67;;
61373;SDS011;47242;48.158;-1.586;2023-06-05T09:41:05;5.35;;;3.40;;
61373;SDS011;47242;48.158;-1.586;2023-06-05T09:43:32;5.88;;;3.25;;
61373;SDS011;47242;48.158;-1.586;2023-06-05T09:45:59;6.57;;;3.50;;
61373;SDS011;47242;48.158;-1.586;2023-06-05T09:48:35;5.10;;;3.35;;
61373;SDS011;47242;48.158;-1.586;2023-06-05T09:51:14;5.63;;;3.53;;
61373;SDS011;47242;48.158;-1.586;2023-06-05T09:53:45;5.75;;;3.53;;
61373;SDS011;47242;48.158;-1.586;2023-06-05T09:56:16;6.00;;;3.53;;
61373;SDS011;47242;48.158;-1.586;2023-06-05T09:58:47;6.03;;;3.38;;
61373;SDS011;47242;48.158;-1.586;2023-06-05T10:01:17;5.32;;;3.30;;
61373;SDS011;47242;48.158;-1.586;2023-06-05T10:03:57;5.00;;;3.28;;
61373;SDS011;47242;48.158;-1.586;2023-06-05T10:06:30;4.95;;;3.50;;
61373;SDS011;47242;48.158;-1.586;2023-06-05T10:08:57;4.55;;;3.55;;
61373;SDS011;47242;48.158;-1.586;2023-06-05T10:11:25;7.00;;;3.40;;
61373;SDS011;47242;48.158;-1.586;2023-06-05T10:13:51;7.25;;;3.85;;
61373;SDS011;47242;48.158;-1.586;2023-06-05T10:16:18;5.70;;;3.35;;
61373;SDS011;47242;48.158;-1.586;2023-06-05T10:18:46;5.18;;;3.40;;
61373;SDS011;47242;48.158;-1.586;2023-06-05T10:21:16;6.70;;;4.00;;
61373;SDS011;47242;48.158;-1.586;2023-06-05T10:23:53;5.03;;;3.13;;
61373;SDS011;47242;48.158;-1.586;2023-06-05T10:31:53;4.97;;;3.10;;
61373;SDS011;47242;48.158;-1.586;2023-06-05T10:37:18;6.60;;;2.90;;
61373;SDS011;47242;48.158;-1.586;2023-06-05T10:40:00;5.60;;;2.55;;
61373;SDS011;47242;48.158;-1.586;2023-06-05T10:42:26;6.50;;;2.53;;
61373;SDS011;47242;48.158;-1.586;2023-06-05T10:44:52;5.00;;;2.38;;
61373;SDS011;47242;48.158;-1.586;2023-06-05T10:52:44;5.10;;;2.40;;
61373;SDS011;47242;48.158;-1.586;2023-06-05T10:55:14;5.45;;;2.70;;
61373;SDS011;47242;48.158;-1.586;2023-06-05T11:00:30;5.45;;;2.72;;
61373;SDS011;47242;48.158;-1.586;2023-06-05T11:02:56;5.68;;;2.35;;
61373;SDS011;47242;48.158;-1.586;2023-06-05T11:05:22;7.07;;;2.70;;
61373;SDS011;47242;48.158;-1.586;2023-06-05T11:08:09;5.47;;;2.55;;
61373;SDS011;47242;48.158;-1.586;2023-06-05T11:11:01;7.63;;;2.72;;
61373;SDS011;47242;48.158;-1.586;2023-06-05T11:16:32;8.93;;;2.72;;
61373;SDS011;47242;48.158;-1.586;2023-06-05T11:20:03;5.72;;;2.83;;
61373;SDS011;47242;48.158;-1.586;2023-06-05T11:22:09;4.43;;;2.70;;
61373;SDS011;47242;48.158;-1.586;2023-06-05T11:24:38;5.55;;;2.65;;
61373;SDS011;47242;48.158;-1.586;2023-06-05T11:27:04;5.30;;;2.40;;
61373;SDS011;47242;48.158;-1.586;2023-06-05T11:29:34;4.40;;;2.53;;
61373;SDS011;47242;48.158;-1.586;2023-06-05T11:32:00;7.35;;;2.30;;
61373;SDS011;47242;48.158;-1.586;2023-06-05T11:34:35;6.40;;;2.83;;
61373;SDS011;47242;48.158;-1.586;2023-06-05T11:37:16;6.18;;;3.00;;
61373;SDS011;47242;48.158;-1.586;2023-06-05T11:39:46;6.38;;;2.75;;
61373;SDS011;47242;48.158;-1.586;2023-06-05T11:42:14;4.18;;;2.47;;
61373;SDS011;47242;48.158;-1.586;2023-06-05T11:44:47;7.25;;;2.80;;
61373;SDS011;47242;48.158;-1.586;2023-06-05T11:47:22;5.78;;;2.70;;
61373;SDS011;47242;48.158;-1.586;2023-06-05T11:49:48;4.82;;;2.80;;
61373;SDS011;47242;48.158;-1.586;2023-06-05T11:52:20;5.45;;;2.58;;
61373;SDS011;47242;48.158;-1.586;2023-06-05T11:54:47;5.90;;;2.50;;
61373;SDS011;47242;48.158;-1.586;2023-06-05T11:58:03;5.20;;;2.72;;
61373;SDS011;47242;48.158;-1.586;2023-06-05T12:00:23;6.13;;;2.92;;
61373;SDS011;47242;48.158;-1.586;2023-06-05T12:02:49;5.68;;;2.83;;
61373;SDS011;47242;48.158;-1.586;2023-06-05T12:05:14;4.95;;;2.60;;
61373;SDS011;47242;48.158;-1.586;2023-06-05T12:07:40;7.68;;;3.20;;
61373;SDS011;47242;48.158;-1.586;2023-06-05T12:10:07;4.68;;;2.75;;
61373;SDS011;47242;48.158;-1.586;2023-06-05T12:12:54;6.05;;;3.03;;
61373;SDS011;47242;48.158;-1.586;2023-06-05T12:15:19;7.95;;;3.22;;
61373;SDS011;47242;48.158;-1.586;2023-06-05T12:17:49;7.40;;;2.85;;
61373;SDS011;47242;48.158;-1.586;2023-06-05T12:22:44;7.45;;;2.85;;
61373;SDS011;47242;48.158;-1.586;2023-06-05T12:25:20;6.60;;;3.03;;
61373;SDS011;47242;48.158;-1.586;2023-06-05T12:27:46;5.50;;;3.13;;
61373;SDS011;47242;48.158;-1.586;2023-06-05T12:30:14;6.10;;;3.05;;
61373;SDS011;47242;48.158;-1.586;2023-06-05T12:32:41;4.90;;;2.95;;
61373;SDS011;47242;48.158;-1.586;2023-06-05T12:35:23;5.13;;;2.72;;
61373;SDS011;47242;48.158;-1.586;2023-06-05T12:37:50;5.47;;;2.80;;
61373;SDS011;47242;48.158;-1.586;2023-06-05T12:40:16;5.63;;;2.80;;
61373;SDS011;47242;48.158;-1.586;2023-06-05T12:42:46;5.00;;;3.08;;
61373;SDS011;47242;48.158;-1.586;2023-06-05T12:45:13;4.60;;;3.10;;
61373;SDS011;47242;48.158;-1.586;2023-06-05T12:47:40;6.57;;;3.00;;
61373;SDS011;47242;48.158;-1.586;2023-06-05T12:50:07;4.82;;;2.72;;
61373;SDS011;47242;48.158;-1.586;2023-06-05T12:52:37;7.93;;;3.28;;
61373;SDS011;47242;48.158;-1.586;2023-06-05T12:55:04;6.13;;;3.42;;
61373;SDS011;47242;48.158;-1.586;2023-06-05T12:57:31;7.25;;;3.13;;
61373;SDS011;47242;48.158;-1.586;2023-06-05T12:59:57;6.50;;;3.40;;
61373;SDS011;47242;48.158;-1.586;2023-06-05T13:02:23;5.20;;;3.00;;
61373;SDS011;47242;48.158;-1.586;2023-06-05T13:04:49;6.47;;;3.20;;
61373;SDS011;47242;48.158;-1.586;2023-06-05T13:07:15;5.68;;;3.00;;
61373;SDS011;47242;48.158;-1.586;2023-06-05T13:09:41;7.78;;;3.13;;
61373;SDS011;47242;48.158;-1.586;2023-06-05T13:12:07;5.20;;;2.83;;
61373;SDS011;47242;48.158;-1.586;2023-06-05T13:14:33;5.95;;;2.75;;
61373;SDS011;47242;48.158;-1.586;2023-06-05T13:16:59;5.38;;;2.88;;
61373;SDS011;47242;48.158;-1.586;2023-06-05T13:19:25;5.65;;;2.85;;
61373;SDS011;47242;48.158;-1.586;2023-06-05T13:21:51;5.15;;;2.92;;
61373;SDS011;47242;48.158;-1.586;2023-06-05T13:24:17;5.30;;;2.83;;
61373;SDS011;47242;48.158;-1.586;2023-06-05T13:26:44;5.13;;;3.45;;
61373;SDS011;47242;48.158;-1.586;2023-06-05T13:29:11;5.45;;;3.00;;
61373;SDS011;47242;48.158;-1.586;2023-06-05T13:31:38;4.97;;;2.78;;
61373;SDS011;47242;48.158;-1.586;2023-06-05T13:34:04;5.30;;;2.97;;
61373;SDS011;47242;48.158;-1.586;2023-06-05T13:36:31;5.03;;;2.70;;
61373;SDS011;47242;48.158;-1.586;2023-06-05T13:38:56;5.88;;;2.80;;
61373;SDS011;47242;48.158;-1.586;2023-06-05T13:41:22;6.45;;;2.80;;
61373;SDS011;47242;48.158;-1.586;2023-06-05T13:43:48;5.82;;;2.67;;
61373;SDS011;47242;48.158;-1.586;2023-06-05T13:46:15;7.00;;;3.00;;
61373;SDS011;47242;48.158;-1.586;2023-06-05T13:48:40;4.93;;;2.80;;
61373;SDS011;47242;48.158;-1.586;2023-06-05T13:51:06;4.70;;;2.70;;
61373;SDS011;47242;48.158;-1.586;2023-06-05T13:53:32;5.85;;;3.05;;
61373;SDS011;47242;48.158;-1.586;2023-06-05T13:56:03;5.47;;;3.20;;
61373;SDS011;47242;48.158;-1.586;2023-06-05T13:58:30;7.82;;;3.38;;
61373;SDS011;47242;48.158;-1.586;2023-06-05T14:00:56;5.90;;;3.10;;
61373;SDS011;47242;48.158;-1.586;2023-06-05T14:03:22;5.80;;;3.50;;
61373;SDS011;47242;48.158;-1.586;2023-06-05T14:05:48;6.30;;;3.22;;
61373;SDS011;47242;48.158;-1.586;2023-06-05T14:08:14;7.20;;;3.30;;
61373;SDS011;47242;48.158;-1.586;2023-06-05T14:10:40;5.45;;;3.22;;
61373;SDS011;47242;48.158;-1.586;2023-06-05T14:13:06;7.82;;;3.13;;
61373;SDS011;47242;48.158;-1.586;2023-06-05T14:15:32;6.90;;;3.40;;
61373;SDS011;47242;48.158;-1.586;2023-06-05T14:17:59;5.32;;;3.30;;
61373;SDS011;47242;48.158;-1.586;2023-06-05T14:20:30;4.70;;;3.33;;
61373;SDS011;47242;48.158;-1.586;2023-06-05T14:22:56;5.47;;;3.20;;
61373;SDS011;47242;48.158;-1.586;2023-06-05T14:25:22;8.02;;;3.45;;
61373;SDS011;47242;48.158;-1.586;2023-06-05T14:27:50;5.00;;;3.13;;
61373;SDS011;47242;48.158;-1.586;2023-06-05T14:30:22;7.15;;;3.20;;
61373;SDS011;47242;48.158;-1.586;2023-06-05T14:32:48;6.72;;;3.38;;
61373;SDS011;47242;48.158;-1.586;2023-06-05T14:35:13;5.78;;;3.35;;
61373;SDS011;47242;48.158;-1.586;2023-06-05T14:37:41;5.63;;;3.08;;
61373;SDS011;47242;48.158;-1.586;2023-06-05T14:40:07;6.57;;;3.22;;
61373;SDS011;47242;48.158;-1.586;2023-06-05T14:42:34;5.40;;;3.10;;
61373;SDS011;47242;48.158;-1.586;2023-06-05T14:45:00;8.73;;;3.63;;
61373;SDS011;47242;48.158;-1.586;2023-06-05T14:47:26;5.85;;;3.40;;
61373;SDS011;47242;48.158;-1.586;2023-06-05T14:49:51;5.47;;;3.28;;
61373;SDS011;47242;48.158;-1.586;2023-06-05T14:52:17;6.18;;;3.10;;
61373;SDS011;47242;48.158;-1.586;2023-06-05T14:54:43;6.28;;;3.25;;
61373;SDS011;47242;48.158;-1.586;2023-06-05T14:57:09;5.68;;;3.38;;
61373;SDS011;47242;48.158;-1.586;2023-06-05T14:59:34;5.97;;;3.60;;
61373;SDS011;47242;48.158;-1.586;2023-06-05T15:02:00;4.38;;;2.92;;
61373;SDS011;47242;48.158;-1.586;2023-06-05T15:04:26;4.60;;;3.15;;
61373;SDS011;47242;48.158;-1.586;2023-06-05T15:06:53;6.45;;;3.08;;
61373;SDS011;47242;48.158;-1.586;2023-06-05T15:09:21;6.28;;;3.47;;
61373;SDS011;47242;48.158;-1.586;2023-06-05T15:11:47;6.10;;;3.33;;
61373;SDS011;47242;48.158;-1.586;2023-06-05T15:14:14;5.32;;;3.03;;
61373;SDS011;47242;48.158;-1.586;2023-06-05T15:16:41;5.50;;;3.28;;
61373;SDS011;47242;48.158;-1.586;2023-06-05T15:19:06;4.20;;;2.95;;
61373;SDS011;47242;48.158;-1.586;2023-06-05T15:21:32;6.63;;;3.58;;
61373;SDS011;47242;48.158;-1.586;2023-06-05T15:23:58;5.85;;;2.97;;
61373;SDS011;47242;48.158;-1.586;2023-06-05T15:26:23;5.03;;;3.20;;
61373;SDS011;47242;48.158;-1.586;2023-06-05T15:28:49;5.45;;;3.15;;
61373;SDS011;47242;48.158;-1.586;2023-06-05T15:31:15;5.63;;;3.25;;
61373;SDS011;47242;48.158;-1.586;2023-06-05T15:33:41;7.15;;;3.38;;
61373;SDS011;47242;48.158;-1.586;2023-06-05T15:36:06;5.75;;;2.90;;
61373;SDS011;47242;48.158;-1.586;2023-06-05T15:38:32;6.13;;;3.20;;
61373;SDS011;47242;48.158;-1.586;2023-06-05T15:40:58;7.47;;;3.85;;
61373;SDS011;47242;48.158;-1.586;2023-06-05T15:43:24;7.32;;;3.58;;
61373;SDS011;47242;48.158;-1.586;2023-06-05T15:45:49;7.60;;;3.28;;
61373;SDS011;47242;48.158;-1.586;2023-06-05T15:48:17;5.15;;;2.95;;
61373;SDS011;47242;48.158;-1.586;2023-06-05T15:50:46;12.27;;;3.85;;
61373;SDS011;47242;48.158;-1.586;2023-06-05T15:53:13;4.93;;;2.75;;
61373;SDS011;47242;48.158;-1.586;2023-06-05T15:55:39;6.68;;;2.88;;
61373;SDS011;47242;48.158;-1.586;2023-06-05T15:58:06;6.50;;;3.42;;
61373;SDS011;47242;48.158;-1.586;2023-06-05T16:00:33;5.70;;;3.17;;
61373;SDS011;47242;48.158;-1.586;2023-06-05T16:02:59;6.05;;;3.45;;
61373;SDS011;47242;48.158;-1.586;2023-06-05T16:05:24;6.03;;;3.42;;
61373;SDS011;47242;48.158;-1.586;2023-06-05T16:07:50;6.20;;;3.40;;
61373;SDS011;47242;48.158;-1.586;2023-06-05T16:10:16;5.55;;;2.92;;
61373;SDS011;47242;48.158;-1.586;2023-06-05T16:12:43;6.68;;;3.20;;
61373;SDS011;47242;48.158;-1.586;2023-06-05T16:15:08;5.32;;;2.92;;
61373;SDS011;47242;48.158;-1.586;2023-06-05T16:17:35;6.10;;;3.20;;
61373;SDS011;47242;48.158;-1.586;2023-06-05T16:20:00;5.32;;;3.42;;
61373;SDS011;47242;48.158;-1.586;2023-06-05T16:22:26;6.32;;;3.05;;
61373;SDS011;47242;48.158;-1.586;2023-06-05T16:24:51;5.07;;;3.25;;
61373;SDS011;47242;48.158;-1.586;2023-06-05T16:27:17;8.98;;;3.85;;
61373;SDS011;47242;48.158;-1.586;2023-06-05T16:29:46;6.07;;;3.58;;
61373;SDS011;47242;48.158;-1.586;2023-06-05T16:32:12;6.30;;;3.95;;
61373;SDS011;47242;48.158;-1.586;2023-06-05T16:34:38;8.23;;;3.85;;
61373;SDS011;47242;48.158;-1.586;2023-06-05T16:37:07;6.40;;;4.13;;
61373;SDS011;47242;48.158;-1.586;2023-06-05T16:39:33;11.10;;;4.60;;
61373;SDS011;47242;48.158;-1.586;2023-06-05T16:41:58;8.27;;;4.10;;
61373;SDS011;47242;48.158;-1.586;2023-06-05T16:44:29;5.72;;;4.38;;
61373;SDS011;47242;48.158;-1.586;2023-06-05T16:46:55;9.13;;;4.13;;
61373;SDS011;47242;48.158;-1.586;2023-06-05T16:49:21;8.35;;;4.28;;
61373;SDS011;47242;48.158;-1.586;2023-06-05T16:51:47;8.40;;;4.28;;
61373;SDS011;47242;48.158;-1.586;2023-06-05T16:54:12;7.25;;;4.18;;
61373;SDS011;47242;48.158;-1.586;2023-06-05T16:56:40;8.13;;;4.28;;
61373;SDS011;47242;48.158;-1.586;2023-06-05T16:59:13;6.45;;;4.45;;
61373;SDS011;47242;48.158;-1.586;2023-06-05T17:01:40;8.82;;;4.65;;
61373;SDS011;47242;48.158;-1.586;2023-06-05T17:04:08;10.73;;;4.63;;
61373;SDS011;47242;48.158;-1.586;2023-06-05T17:06:34;9.35;;;5.05;;
61373;SDS011;47242;48.158;-1.586;2023-06-05T17:09:00;7.78;;;4.65;;
61373;SDS011;47242;48.158;-1.586;2023-06-05T17:11:26;8.80;;;4.88;;
61373;SDS011;47242;48.158;-1.586;2023-06-05T17:13:52;6.63;;;4.70;;
61373;SDS011;47242;48.158;-1.586;2023-06-05T17:16:18;6.22;;;4.50;;
61373;SDS011;47242;48.158;-1.586;2023-06-05T17:18:44;8.10;;;4.45;;
61373;SDS011;47242;48.158;-1.586;2023-06-05T17:21:10;8.32;;;4.70;;
61373;SDS011;47242;48.158;-1.586;2023-06-05T17:23:36;9.20;;;4.60;;
61373;SDS011;47242;48.158;-1.586;2023-06-05T17:26:02;7.38;;;4.90;;
61373;SDS011;47242;48.158;-1.586;2023-06-05T17:28:28;7.90;;;4.70;;
61373;SDS011;47242;48.158;-1.586;2023-06-05T17:30:54;6.70;;;4.30;;
61373;SDS011;47242;48.158;-1.586;2023-06-05T17:33:20;9.23;;;5.15;;
61373;SDS011;47242;48.158;-1.586;2023-06-05T17:35:46;8.77;;;5.47;;
61373;SDS011;47242;48.158;-1.586;2023-06-05T17:38:12;9.00;;;4.90;;
61373;SDS011;47242;48.158;-1.586;2023-06-05T17:40:38;9.98;;;5.22;;
61373;SDS011;47242;48.158;-1.586;2023-06-05T17:43:07;10.10;;;5.20;;
61373;SDS011;47242;48.158;-1.586;2023-06-05T17:45:33;8.80;;;5.30;;
61373;SDS011;47242;48.158;-1.586;2023-06-05T17:48:01;7.88;;;4.82;;
61373;SDS011;47242;48.158;-1.586;2023-06-05T17:50:28;9.40;;;5.40;;
61373;SDS011;47242;48.158;-1.586;2023-06-05T17:52:54;9.65;;;5.88;;
61373;SDS011;47242;48.158;-1.586;2023-06-05T17:55:19;11.48;;;5.95;;
61373;SDS011;47242;48.158;-1.586;2023-06-05T17:57:46;7.57;;;5.35;;
61373;SDS011;47242;48.158;-1.586;2023-06-05T18:00:20;8.50;;;5.22;;
61373;SDS011;47242;48.158;-1.586;2023-06-05T18:02:50;7.80;;;5.15;;
61373;SDS011;47242;48.158;-1.586;2023-06-05T18:05:16;8.75;;;5.10;;
61373;SDS011;47242;48.158;-1.586;2023-06-05T18:07:41;7.72;;;5.68;;
61373;SDS011;47242;48.158;-1.586;2023-06-05T18:10:07;8.25;;;5.15;;
61373;SDS011;47242;48.158;-1.586;2023-06-05T18:12:34;8.15;;;5.07;;
61373;SDS011;47242;48.158;-1.586;2023-06-05T18:14:59;9.32;;;5.32;;
61373;SDS011;47242;48.158;-1.586;2023-06-05T18:17:26;10.57;;;5.00;;
61373;SDS011;47242;48.158;-1.586;2023-06-05T18:19:54;8.82;;;5.15;;
61373;SDS011;47242;48.158;-1.586;2023-06-05T18:22:20;10.43;;;5.57;;
61373;SDS011;47242;48.158;-1.586;2023-06-05T18:24:46;8.02;;;5.00;;
61373;SDS011;47242;48.158;-1.586;2023-06-05T18:27:12;13.27;;;6.10;;
61373;SDS011;47242;48.158;-1.586;2023-06-05T18:29:37;9.70;;;5.68;;
61373;SDS011;47242;48.158;-1.586;2023-06-05T18:32:03;11.73;;;5.65;;
61373;SDS011;47242;48.158;-1.586;2023-06-05T18:34:30;9.57;;;5.47;;
61373;SDS011;47242;48.158;-1.586;2023-06-05T18:36:56;11.02;;;5.78;;
61373;SDS011;47242;48.158;-1.586;2023-06-05T18:39:21;10.07;;;5.93;;
61373;SDS011;47242;48.158;-1.586;2023-06-05T18:41:47;8.75;;;5.60;;
61373;SDS011;47242;48.158;-1.586;2023-06-05T18:44:13;7.35;;;5.25;;
61373;SDS011;47242;48.158;-1.586;2023-06-05T18:46:39;9.65;;;5.45;;
61373;SDS011;47242;48.158;-1.586;2023-06-05T18:49:05;9.02;;;6.20;;
61373;SDS011;47242;48.158;-1.586;2023-06-05T18:51:31;9.88;;;5.47;;
61373;SDS011;47242;48.158;-1.586;2023-06-05T18:53:57;10.65;;;5.72;;
61373;SDS011;47242;48.158;-1.586;2023-06-05T18:56:22;9.93;;;5.60;;
61373;SDS011;47242;48.158;-1.586;2023-06-05T18:58:48;8.68;;;5.70;;
61373;SDS011;47242;48.158;-1.586;2023-06-05T19:01:14;11.15;;;5.70;;
61373;SDS011;47242;48.158;-1.586;2023-06-05T19:03:40;9.00;;;5.32;;
61373;SDS011;47242;48.158;-1.586;2023-06-05T19:06:06;9.18;;;5.55;;
61373;SDS011;47242;48.158;-1.586;2023-06-05T19:08:32;8.40;;;5.22;;
61373;SDS011;47242;48.158;-1.586;2023-06-05T19:10:58;10.00;;;5.43;;
61373;SDS011;47242;48.158;-1.586;2023-06-05T19:13:23;7.25;;;5.55;;
61373;SDS011;47242;48.158;-1.586;2023-06-05T19:15:49;11.63;;;6.40;;
61373;SDS011;47242;48.158;-1.586;2023-06-05T19:18:15;9.25;;;5.22;;
61373;SDS011;47242;48.158;-1.586;2023-06-05T19:20:41;8.15;;;5.57;;
61373;SDS011;47242;48.158;-1.586;2023-06-05T19:23:06;10.65;;;6.20;;
61373;SDS011;47242;48.158;-1.586;2023-06-05T19:25:32;11.95;;;6.32;;
61373;SDS011;47242;48.158;-1.586;2023-06-05T19:27:58;11.05;;;5.90;;
61373;SDS011;47242;48.158;-1.586;2023-06-05T19:30:24;11.10;;;6.45;;
61373;SDS011;47242;48.158;-1.586;2023-06-05T19:32:50;12.60;;;6.22;;